Time;durP1;ratioP1;P1;durP2;ratioP2;P2;SDS_P1;SDS_P2;PMS_P1;PMS_P2;Temp;Humidity;BMP_temperature;BMP_pressure;BME280_temperature;BME280_humidity;BME280_pressure;Samples;Min_cycle;Max_cycle;Signal;HPM_P1;HPM_P2
2022/04/21 04:19:51;;;;;;;;;;;;;;;8.19;100.00;97741.84;4899648;29;20424;-72
2022/04/21 04:22:19;;;;;;;;;;;;;;;8.20;100.00;97746.25;4885468;29;20256;-72
2022/04/21 04:24:46;;;;;;;;;;;;;;;8.21;100.00;97749.81;4902050;29;19948;-73
2022/04/21 04:27:13;;;;;;;;;;;;;;;8.19;100.00;97747.41;4901255;29;19950;-73
2022/04/21 04:29:41;;;;;;;;;;;;;;;8.13;100.00;97748.22;4901475;29;19975;-74
2022/04/21 04:32:08;;;;;;;;;;;;;;;8.13;100.00;97746.22;4902095;29;19954;-73
2022/04/21 04:34:35;;;;;;;;;;;;;;;8.09;100.00;97741.84;4901521;29;19951;-73
2022/04/21 04:37:03;;;;;;;;;;;;;;;8.00;100.00;97747.78;4900937;29;19957;-73
2022/04/21 04:39:30;;;;;;;;;;;;;;;7.97;100.00;97747.78;4901538;29;19957;-72
2022/04/21 04:42:16;;;;;;;;;;;;;;;8.01;100.00;97749.41;4901278;29;19980;-72
2022/04/21 04:44:44;;;;;;;;;;;;;;;8.11;100.00;97747.81;4901287;29;19953;-72
2022/04/21 04:47:11;;;;;;;;;;;;;;;8.13;100.00;97751.00;4901258;29;19948;-72
2022/04/21 04:49:38;;;;;;;;;;;;;;;8.11;100.00;97754.19;4901034;29;20372;-73
2022/04/21 04:52:06;;;;;;;;;;;;;;;8.19;100.00;97750.22;4901731;29;19961;-72
2022/04/21 04:54:33;;;;;;;;;;;;;;;8.28;100.00;97747.88;4901238;29;19946;-72
2022/04/21 04:57:01;;;;;;;;;;;;;;;8.27;100.00;97740.72;4902887;29;19985;-73
2022/04/21 04:59:29;;;;;;;;;;;;;;;8.25;100.00;97756.19;4905208;29;19953;-73
2022/04/21 05:01:56;;;;;;;;;;;;;;;8.19;100.00;97749.44;4904548;29;19949;-73
2022/04/21 05:04:24;;;;;;;;;;;;;;;8.19;100.00;97750.22;4904450;29;19956;-73
2022/04/21 05:06:51;;;;;;;;;;;;;;;8.22;100.00;97748.63;4904948;29;19944;-73
2022/04/21 05:09:20;;;;;;;;;;;;;;;8.19;100.00;97753.00;4902269;29;19972;-73
2022/04/21 05:11:50;;;;;;;;;;;;;;;8.31;100.00;97755.47;4903187;29;19956;-73
2022/04/21 05:14:18;;;;;;;;;;;;;;;8.34;100.00;97763.00;4901160;29;19949;-73
2022/04/21 05:16:46;;;;;;;;;;;;;;;8.37;100.00;97761.41;4900495;29;19954;-73
2022/04/21 05:19:14;;;;;;;;;;;;;;;8.36;100.00;97762.63;4903976;29;19984;-73
2022/04/21 05:21:42;;;;;;;;;;;;;;;8.31;100.00;97760.22;4904681;29;19954;-72
2022/04/21 05:24:10;;;;;;;;;;;;;;;8.43;100.00;97760.63;4904052;29;19957;-73
2022/04/21 05:26:38;;;;;;;;;;;;;;;8.45;100.00;97760.22;4903877;29;19950;-73
2022/04/21 05:30:55;;;;;;;;;;;;;;;8.49;100.00;97761.81;4904311;29;19960;-73
2022/04/21 05:31:59;;;;;;;;;;;;;;;8.49;100.00;97770.19;4904424;29;19957;-73
2022/04/21 05:34:27;;;;;;;;;;;;;;;8.48;100.00;97767.81;4904490;29;19954;-73
2022/04/21 05:36:55;;;;;;;;;;;;;;;8.44;100.00;97772.56;4903754;29;20250;-74
2022/04/21 05:39:23;;;;;;;;;;;;;;;8.41;100.00;97770.59;4903333;29;19957;-74
2022/04/21 05:41:51;;;;;;;;;;;;;;;8.40;100.00;97768.97;4903271;29;19959;-74
2022/04/21 05:44:19;;;;;;;;;;;;;;;8.43;100.00;97763.44;4903389;29;19951;-74
2022/04/21 05:46:46;;;;;;;;;;;;;;;8.45;100.00;97758.25;4902343;29;19949;-74
2022/04/21 05:49:14;;;;;;;;;;;;;;;8.49;100.00;97756.25;4900750;29;19952;-75
2022/04/21 05:51:42;;;;;;;;;;;;;;;8.48;100.00;97757.47;4903407;29;20337;-74
2022/04/21 05:54:09;;;;;;;;;;;;;;;8.40;100.00;97753.06;4903316;29;19950;-74
2022/04/21 05:56:37;;;;;;;;;;;;;;;8.34;100.00;97746.28;4887067;29;19957;-74
2022/04/21 05:59:04;;;;;;;;;;;;;;;8.31;100.00;97740.72;4903009;29;19952;-74
2022/04/21 06:01:32;;;;;;;;;;;;;;;8.37;100.00;97742.72;4903015;29;20024;-74
2022/04/21 06:03:59;;;;;;;;;;;;;;;8.33;100.00;97739.13;4902986;29;19957;-74
2022/04/21 06:06:26;;;;;;;;;;;;;;;8.40;100.00;97746.69;4902983;29;19954;-74
2022/04/21 06:08:53;;;;;;;;;;;;;;;8.29;100.00;97737.53;4902624;29;19944;-74
2022/04/21 06:11:21;;;;;;;;;;;;;;;8.25;100.00;97743.06;4902409;29;19971;-74
2022/04/21 06:13:49;;;;;;;;;;;;;;;8.26;100.00;97744.69;4902577;29;19955;-74
2022/04/21 06:16:17;;;;;;;;;;;;;;;8.18;100.00;97743.06;4903712;29;19942;-75
2022/04/21 06:18:44;;;;;;;;;;;;;;;8.23;100.00;97739.88;4901460;29;19973;-75
2022/04/21 06:21:12;;;;;;;;;;;;;;;8.25;100.00;97726.34;4908629;29;20242;-75
2022/04/21 06:23:40;;;;;;;;;;;;;;;8.21;100.00;97725.56;4887984;29;20300;-75
2022/04/21 06:26:07;;;;;;;;;;;;;;;8.13;100.00;97728.72;4900663;29;20419;-74
2022/04/21 06:28:35;;;;;;;;;;;;;;;8.15;100.00;97731.91;4901965;29;19953;-73
2022/04/21 06:31:02;;;;;;;;;;;;;;;8.08;100.00;97729.09;4902579;29;19969;-74
2022/04/21 06:33:30;;;;;;;;;;;;;;;8.04;100.00;97729.13;4894104;29;19958;-74
2022/04/21 06:35:59;;;;;;;;;;;;;;;7.97;100.00;97726.31;4899993;29;19975;-74
2022/04/21 06:38:27;;;;;;;;;;;;;;;7.92;100.00;97729.50;4893609;29;19976;-74
2022/04/21 06:40:55;;;;;;;;;;;;;;;8.04;100.00;97740.25;4887733;29;19953;-74
2022/04/21 06:48:54;;;;;;;;;;;;;;;8.04;100.00;97742.25;4901668;29;19949;-75
2022/04/21 06:51:21;;;;;;;;;;;;;;;8.10;100.00;97747.00;4902180;29;20405;-75
2022/04/21 06:53:49;;;;;;;;;;;;;;;7.96;100.00;97747.00;4895912;29;19949;-75
2022/04/21 06:56:16;;;;;;;;;;;;;;;7.88;100.00;97743.38;4896932;29;19964;-74
2022/04/21 06:58:43;;;;;;;;;;;;;;;7.82;100.00;97742.16;4900715;29;19951;-75
2022/04/21 07:01:11;;;;;;;;;;;;;;;7.87;100.00;97744.56;4901838;29;20242;-74
2022/04/21 07:03:38;;;;;;;;;;;;;;;7.85;100.00;97740.59;4894325;29;19955;-74
2022/04/21 07:06:06;;;;;;;;;;;;;;;7.87;100.00;97739.00;4893807;29;19949;-74
2022/04/21 07:08:34;;;;;;;;;;;;;;;7.82;100.00;97730.25;4901493;29;19957;-74
2022/04/21 07:11:01;;;;;;;;;;;;;;;7.81;100.00;97729.47;4901543;29;19969;-75
2022/04/21 07:13:28;;;;;;;;;;;;;;;7.87;100.00;97736.22;4901639;29;19954;-74
2022/04/21 07:15:56;;;;;;;;;;;;;;;7.91;100.00;97730.66;4883465;29;19955;-74
2022/04/21 07:18:23;;;;;;;;;;;;;;;7.94;100.00;97738.25;4883556;29;19970;-74
2022/04/21 07:20:50;;;;;;;;;;;;;;;7.95;100.00;97737.03;4884863;29;20245;-75
2022/04/21 07:23:17;;;;;;;;;;;;;;;7.84;100.00;97739.00;4900605;29;19948;-75
2022/04/21 07:25:45;;;;;;;;;;;;;;;7.88;100.00;97728.66;4901049;29;19957;-75
2022/04/21 07:28:12;;;;;;;;;;;;;;;7.78;100.00;97723.88;4901672;29;19952;-74
2022/04/21 07:30:39;;;;;;;;;;;;;;;7.86;100.00;97723.50;4901167;29;19964;-74
2022/04/21 07:33:07;;;;;;;;;;;;;;;7.86;100.00;97717.13;4893091;29;19961;-75
2022/04/21 07:35:34;;;;;;;;;;;;;;;7.90;100.00;97717.94;4894860;29;19949;-75
2022/04/21 07:38:02;;;;;;;;;;;;;;;7.85;100.00;97709.97;4900268;29;19960;-75
2022/04/21 07:40:29;;;;;;;;;;;;;;;7.90;100.00;97706.78;4899524;29;19950;-74
2022/04/21 07:43:02;;;;;;;;;;;;;;;7.93;100.00;97725.50;4896620;29;19959;-75
2022/04/21 07:45:29;;;;;;;;;;;;;;;7.92;100.00;97723.94;4885573;29;20338;-75
2022/04/21 07:47:57;;;;;;;;;;;;;;;7.99;100.00;97720.34;4901200;29;19963;-75
2022/04/21 07:50:24;;;;;;;;;;;;;;;8.02;100.00;97725.13;4900125;29;19949;-75
2022/04/21 07:53:14;;;;;;;;;;;;;;;8.05;100.00;97725.13;4891750;29;19960;-75
2022/04/21 07:55:42;;;;;;;;;;;;;;;7.93;100.00;97736.63;4899582;29;19964;-74
2022/04/21 07:58:10;;;;;;;;;;;;;;;7.99;100.00;97735.06;4900954;29;20266;-75
2022/04/21 08:00:38;;;;;;;;;;;;;;;8.02;100.00;97745.41;4884863;29;19983;-74
2022/04/21 08:03:10;;;;;;;;;;;;;;;8.00;100.00;97733.06;4900307;29;20359;-74
2022/04/21 08:05:37;;;;;;;;;;;;;;;7.98;100.00;97730.69;4900861;29;20246;-75
2022/04/21 08:08:08;;;;;;;;;;;;;;;7.99;100.00;97729.50;4901152;29;19963;-74
2022/04/21 08:10:35;;;;;;;;;;;;;;;8.12;100.00;97724.38;4901215;29;19970;-74
2022/04/21 08:13:02;;;;;;;;;;;;;;;8.10;100.00;97726.72;4900546;29;19948;-74
2022/04/21 08:15:31;;;;;;;;;;;;;;;8.08;100.00;97727.13;4901383;29;20246;-75
2022/04/21 08:17:59;;;;;;;;;;;;;;;8.07;100.00;97733.88;4901424;29;19971;-75
2022/04/21 08:20:28;;;;;;;;;;;;;;;8.11;100.00;97737.47;4901119;29;19986;-74
2022/04/21 08:22:56;;;;;;;;;;;;;;;8.10;100.00;97730.31;4900321;29;19954;-75
2022/04/21 08:34:21;;;;;;;;;;;;;;;8.21;100.00;97714.44;4904212;29;20350;-75
2022/04/21 08:36:51;;;;;;;;;;;;;;;8.21;100.00;97714.44;4900330;29;19951;-75
2022/04/21 08:39:20;;;;;;;;;;;;;;;8.23;100.00;97712.03;4900797;29;19952;-75
2022/04/21 08:41:51;;;;;;;;;;;;;;;8.27;100.00;97714.84;4903293;29;20036;-75
2022/04/21 08:44:19;;;;;;;;;;;;;;;8.31;100.00;97702.53;4894422;29;19957;-75
2022/04/21 08:46:49;;;;;;;;;;;;;;;8.42;100.00;97710.88;4902721;29;19956;-75
2022/04/21 08:49:18;;;;;;;;;;;;;;;8.43;100.00;97716.06;4904832;29;19956;-75
2022/04/21 08:51:45;;;;;;;;;;;;;;;8.49;100.00;97722.81;4902941;29;19966;-74
2022/04/21 08:54:13;;;;;;;;;;;;;;;8.47;100.00;97727.19;4904653;29;19970;-75
2022/04/21 08:56:40;;;;;;;;;;;;;;;8.40;100.00;97736.34;4902427;29;19956;-75
2022/04/21 08:59:07;;;;;;;;;;;;;;;8.43;100.00;97732.78;4903537;29;19951;-75
2022/04/21 09:01:35;;;;;;;;;;;;;;;8.46;100.00;97731.97;4904646;29;20068;-74
2022/04/21 09:04:03;;;;;;;;;;;;;;;8.43;100.00;97741.13;4903591;29;19955;-75
2022/04/21 09:06:30;;;;;;;;;;;;;;;8.41;100.00;97745.50;4904132;29;19954;-75
2022/04/21 09:09:14;;;;;;;;;;;;;;;8.32;100.00;97742.31;4903738;29;19958;-75
2022/04/21 09:11:43;;;;;;;;;;;;;;;8.42;100.00;97744.31;4903646;29;19968;-74
2022/04/21 09:14:17;;;;;;;;;;;;;;;8.30;100.00;97741.91;4902222;29;19953;-75
2022/04/21 09:16:44;;;;;;;;;;;;;;;8.31;100.00;97754.66;4892854;29;19948;-75
2022/04/21 09:19:13;;;;;;;;;;;;;;;8.34;100.00;97748.25;4902531;29;20380;-75
2022/04/21 09:21:41;;;;;;;;;;;;;;;8.22;100.00;97746.63;4903008;29;19980;-73
2022/04/21 09:24:18;;;;;;;;;;;;;;;8.23;100.00;97748.25;4903911;29;19951;-75
2022/04/21 09:26:46;;;;;;;;;;;;;;;8.26;100.00;97730.78;4903367;29;19957;-75
2022/04/21 09:29:21;;;;;;;;;;;;;;;8.26;100.00;97722.41;4903845;29;19943;-75
2022/04/21 09:31:52;;;;;;;;;;;;;;;8.31;100.00;97718.44;4893268;29;19970;-75
2022/04/21 09:34:20;;;;;;;;;;;;;;;8.30;100.00;97717.63;4903019;29;19946;-75
2022/04/21 09:36:47;;;;;;;;;;;;;;;8.39;100.00;97715.25;4903964;29;19951;-74
2022/04/21 09:39:15;;;;;;;;;;;;;;;8.48;100.00;97721.25;4901929;29;19949;-74
2022/04/21 09:41:43;;;;;;;;;;;;;;;8.51;100.00;97725.19;4902233;29;19956;-74
2022/04/21 09:47:00;;;;;;;;;;;;;;;8.66;100.00;97739.91;4902906;29;19953;-74
2022/04/21 09:49:38;;;;;;;;;;;;;;;8.62;100.00;97750.28;4902880;29;19960;-74
2022/04/21 09:52:06;;;;;;;;;;;;;;;8.56;100.00;97753.47;4899857;29;19970;-74
2022/04/21 09:54:36;;;;;;;;;;;;;;;8.54;100.00;97750.28;4902834;29;19949;-74
2022/04/21 09:57:04;;;;;;;;;;;;;;;8.46;100.00;97754.25;4887670;29;19958;-74
2022/04/21 09:59:35;;;;;;;;;;;;;;;8.51;100.00;97744.69;4897972;29;19950;-74
2022/04/21 10:02:03;;;;;;;;;;;;;;;8.56;100.00;97741.50;4903153;29;19950;-74
2022/04/21 10:04:30;;;;;;;;;;;;;;;8.58;100.00;97728.78;4902488;29;19960;-74
2022/04/21 10:06:58;;;;;;;;;;;;;;;8.68;100.00;97734.75;4901879;29;19953;-74
2022/04/21 10:09:27;;;;;;;;;;;;;;;8.73;100.00;97735.13;4903211;29;19947;-74
2022/04/21 10:11:55;;;;;;;;;;;;;;;8.72;100.00;97730.78;4901855;29;20355;-74
2022/04/21 10:14:22;;;;;;;;;;;;;;;8.59;100.00;97722.03;4900796;29;19948;-74
2022/04/21 10:16:51;;;;;;;;;;;;;;;8.67;100.00;97725.59;4900328;29;19955;-74
2022/04/21 10:19:20;;;;;;;;;;;;;;;8.68;100.00;97727.19;4902360;29;20351;-74
2022/04/21 10:21:53;;;;;;;;;;;;;;;8.74;100.00;97733.97;4902002;29;19964;-74
2022/04/21 10:24:24;;;;;;;;;;;;;;;8.78;100.00;97733.97;4902275;29;19968;-74
2022/04/21 10:26:52;;;;;;;;;;;;;;;8.71;100.00;97729.16;4902135;29;20318;-74
2022/04/21 10:29:22;;;;;;;;;;;;;;;8.79;100.00;97733.56;4885289;29;19957;-74
2022/04/21 10:31:57;;;;;;;;;;;;;;;8.79;100.00;97739.13;4883994;29;19973;-74
2022/04/21 10:34:27;;;;;;;;;;;;;;;8.79;100.00;97741.91;4900106;29;19949;-75
2022/04/21 10:37:10;;;;;;;;;;;;;;;8.82;100.00;97727.19;4904438;29;20327;-75
2022/04/21 10:39:37;;;;;;;;;;;;;;;8.86;100.00;97724.38;4895537;29;20234;-75
2022/04/21 10:42:14;;;;;;;;;;;;;;;8.82;100.00;97729.97;4899020;29;19983;-75
2022/04/21 10:44:42;;;;;;;;;;;;;;;8.86;100.00;97725.19;4901812;29;20354;-75
2022/04/21 10:47:29;;;;;;;;;;;;;;;8.91;100.00;97724.78;4903033;29;19944;-75
2022/04/21 10:49:57;;;;;;;;;;;;;;;8.99;100.00;97731.13;4902324;29;19951;-75
2022/04/21 10:57:51;;;;;;;;;;;;;;;9.00;100.00;97710.41;4921560;29;19953;-75
2022/04/21 11:00:28;;;;;;;;;;;;;;;9.02;100.00;97708.81;4905774;29;20242;-75
2022/04/21 11:03:02;;;;;;;;;;;;;;;9.00;100.00;97713.19;4900987;29;19959;-75
2022/04/21 11:05:31;;;;;;;;;;;;;;;9.02;100.00;97716.41;4901301;29;20345;-75
2022/04/21 11:07:59;;;;;;;;;;;;;;;9.04;100.00;97708.41;4885919;29;19952;-74
2022/04/21 11:10:27;;;;;;;;;;;;;;;9.08;100.00;97707.22;4902502;29;20024;-75
2022/04/21 11:12:55;;;;;;;;;;;;;;;9.04;100.00;97706.44;4901089;29;20262;-75
2022/04/21 11:15:53;;;;;;;;;;;;;;;9.09;100.00;97703.25;4901791;29;19951;-74
2022/04/21 11:18:21;;;;;;;;;;;;;;;9.08;100.00;97700.84;4901193;29;20390;-74
2022/04/21 11:20:49;;;;;;;;;;;;;;;9.11;100.00;97700.03;4902197;29;20362;-74
2022/04/21 11:23:32;;;;;;;;;;;;;;;9.15;100.00;97700.81;4900810;29;19953;-74
2022/04/21 11:26:06;;;;;;;;;;;;;;;9.13;100.00;97700.41;4902154;29;20257;-74
2022/04/21 11:28:33;;;;;;;;;;;;;;;9.04;100.00;97703.66;4902125;29;19954;-74
2022/04/21 11:31:04;;;;;;;;;;;;;;;9.09;100.00;97696.84;4901990;29;20257;-75
2022/04/21 11:33:31;;;;;;;;;;;;;;;9.22;100.00;97695.19;4901446;29;19968;-74
2022/04/21 11:36:02;;;;;;;;;;;;;;;9.19;100.00;97694.00;4901307;29;19955;-74
2022/04/21 11:38:33;;;;;;;;;;;;;;;9.16;100.00;97691.25;4901839;29;19950;-75
2022/04/21 11:41:02;;;;;;;;;;;;;;;9.19;100.00;97702.38;4902159;29;19950;-75
2022/04/21 11:43:30;;;;;;;;;;;;;;;9.23;100.00;97700.41;4899624;29;20247;-75
2022/04/21 11:45:58;;;;;;;;;;;;;;;9.25;100.00;97694.41;4901293;29;19957;-75
2022/04/21 11:48:30;;;;;;;;;;;;;;;9.15;100.00;97690.44;4901594;29;19951;-74
2022/04/21 11:50:57;;;;;;;;;;;;;;;9.16;100.00;97692.06;4901838;29;19954;-74
2022/04/21 11:53:27;;;;;;;;;;;;;;;9.16;100.00;97685.69;4900565;29;19976;-74
2022/04/21 11:55:54;;;;;;;;;;;;;;;9.14;100.00;97688.88;4901834;29;19945;-74
2022/04/21 11:58:25;;;;;;;;;;;;;;;9.20;100.00;97686.44;4900847;29;20244;-74
2022/04/21 12:06:37;;;;;;;;;;;;;;;9.19;100.00;97677.28;4903452;29;19949;-75
2022/04/21 12:09:05;;;;;;;;;;;;;;;9.19;100.00;97670.94;4905118;29;19957;-74
2022/04/21 12:11:33;;;;;;;;;;;;;;;9.13;100.00;97675.31;4904385;29;19957;-75
2022/04/21 12:14:01;;;;;;;;;;;;;;;9.18;100.00;97672.91;4904953;29;19977;-75
2022/04/21 12:16:36;;;;;;;;;;;;;;;9.19;100.00;97679.31;4905517;29;19949;-74
2022/04/21 12:19:10;;;;;;;;;;;;;;;9.10;100.00;97682.50;4901650;29;19978;-74
2022/04/21 12:21:38;;;;;;;;;;;;;;;9.22;100.00;97682.06;4899232;29;20262;-72
2022/04/21 12:24:13;;;;;;;;;;;;;;;9.16;100.00;97668.94;4904234;29;19961;-73
2022/04/21 12:26:47;;;;;;;;;;;;;;;9.15;100.00;97675.72;4904119;29;19956;-73
2022/04/21 12:29:14;;;;;;;;;;;;;;;9.16;100.00;97668.94;4901404;29;19964;-74
2022/04/21 12:31:51;;;;;;;;;;;;;;;9.24;100.00;97662.91;4904716;29;19957;-74
2022/04/21 12:34:33;;;;;;;;;;;;;;;9.17;100.00;97662.94;4903803;29;19972;-74
2022/04/21 12:37:01;;;;;;;;;;;;;;;9.19;100.00;97649.38;4903756;29;19954;-74
2022/04/21 12:39:29;;;;;;;;;;;;;;;9.17;100.00;97646.22;4902388;29;19953;-74
2022/04/21 12:42:10;;;;;;;;;;;;;;;9.17;100.00;97653.78;4900819;29;19952;-73
2022/04/21 12:44:37;;;;;;;;;;;;;;;9.17;100.00;97659.34;4900905;29;20355;-73
2022/04/21 12:47:11;;;;;;;;;;;;;;;9.17;100.00;97657.38;4901244;29;19950;-74
2022/04/21 12:49:57;;;;;;;;;;;;;;;9.21;100.00;97654.56;4895569;29;19948;-74
2022/04/21 12:52:30;;;;;;;;;;;;;;;9.19;100.00;97648.63;4902726;29;19949;-73
2022/04/21 12:54:58;;;;;;;;;;;;;;;9.13;100.00;97644.63;4913861;29;19947;-73
2022/04/21 12:57:27;;;;;;;;;;;;;;;9.14;100.00;97640.66;4916236;29;19960;-74
2022/04/21 12:59:54;;;;;;;;;;;;;;;9.19;100.00;97643.03;4902831;29;20211;-73
2022/04/21 13:02:22;;;;;;;;;;;;;;;9.23;100.00;97643.81;4896431;29;19950;-73
2022/04/21 13:04:49;;;;;;;;;;;;;;;9.17;100.00;97639.81;4902138;29;19951;-73
2022/04/21 13:07:17;;;;;;;;;;;;;;;9.07;100.00;97649.81;4901991;29;20246;-73
2022/04/21 13:09:44;;;;;;;;;;;;;;;9.01;100.00;97645.88;4899560;29;19955;-74
2022/04/21 13:12:11;;;;;;;;;;;;;;;9.07;100.00;97651.84;4902334;29;19951;-73
2022/04/21 13:14:39;;;;;;;;;;;;;;;9.06;100.00;97639.88;4901926;29;19978;-73
2022/04/21 13:17:06;;;;;;;;;;;;;;;9.04;100.00;97649.84;4900755;29;20862;-73
2022/04/21 13:19:33;;;;;;;;;;;;;;;8.99;100.00;97647.47;4903092;29;19969;-73
2022/04/21 13:22:03;;;;;;;;;;;;;;;9.01;100.00;97650.66;4902153;29;19964;-73
2022/04/21 13:24:31;;;;;;;;;;;;;;;8.99;100.00;97639.13;4902814;29;19978;-73
2022/04/21 13:26:59;;;;;;;;;;;;;;;8.94;100.00;97645.09;4900986;29;20244;-73
2022/04/21 13:29:27;;;;;;;;;;;;;;;8.98;100.00;97637.50;4900581;29;19948;-73
2022/04/21 13:34:40;;;;;;;;;;;;;;;9.03;100.00;97618.38;4889474;29;19969;-74
2022/04/21 13:37:07;;;;;;;;;;;;;;;8.99;100.00;97623.19;4901147;29;19954;-74
2022/04/21 13:39:36;;;;;;;;;;;;;;;9.06;100.00;97622.34;4903328;29;19982;-74
2022/04/21 13:42:03;;;;;;;;;;;;;;;8.99;100.00;97620.41;4902642;29;19951;-73
2022/04/21 13:44:31;;;;;;;;;;;;;;;8.99;100.00;97611.22;4902925;29;20259;-73
2022/04/21 13:47:18;;;;;;;;;;;;;;;9.01;100.00;97614.41;4889228;29;19949;-74
2022/04/21 13:49:46;;;;;;;;;;;;;;;9.04;100.00;97616.41;4884661;29;19953;-74
2022/04/21 13:52:13;;;;;;;;;;;;;;;9.04;100.00;97614.41;4889168;29;19950;-73
2022/04/21 13:54:40;;;;;;;;;;;;;;;9.05;100.00;97604.81;4903433;29;19978;-74
2022/04/21 13:57:08;;;;;;;;;;;;;;;9.09;100.00;97602.03;4902703;29;19948;-74
2022/04/21 13:59:35;;;;;;;;;;;;;;;9.14;100.00;97598.81;4901864;29;19946;-74
2022/04/21 14:02:02;;;;;;;;;;;;;;;9.09;100.00;97602.03;4901788;29;19948;-74
2022/04/21 14:04:30;;;;;;;;;;;;;;;9.10;100.00;97595.25;4902288;29;19949;-74
2022/04/21 14:06:58;;;;;;;;;;;;;;;9.12;100.00;97590.06;4901673;29;19952;-73
2022/04/21 14:09:25;;;;;;;;;;;;;;;9.13;100.00;97591.66;4901826;29;19955;-74
2022/04/21 14:11:52;;;;;;;;;;;;;;;9.16;100.00;97596.41;4901161;29;19993;-74
2022/04/21 14:14:20;;;;;;;;;;;;;;;9.15;100.00;97595.63;4901306;29;19964;-74
2022/04/21 14:16:47;;;;;;;;;;;;;;;9.13;100.00;97597.22;4902403;29;20299;-73
2022/04/21 14:19:14;;;;;;;;;;;;;;;9.09;100.00;97602.84;4902920;29;19971;-74
2022/04/21 14:21:42;;;;;;;;;;;;;;;9.03;100.00;97603.63;4902085;29;19962;-73
2022/04/21 14:24:10;;;;;;;;;;;;;;;9.03;100.00;97589.69;4901627;29;20348;-74
2022/04/21 14:26:37;;;;;;;;;;;;;;;8.91;100.00;97579.00;4886377;29;19979;-73
2022/04/21 14:29:06;;;;;;;;;;;;;;;8.83;100.00;97575.44;4901605;29;19952;-74
2022/04/21 14:31:34;;;;;;;;;;;;;;;8.84;100.00;97579.81;4897129;29;20237;-74
2022/04/21 14:34:01;;;;;;;;;;;;;;;8.81;100.00;97583.41;4902117;29;20399;-73
2022/04/21 14:36:30;;;;;;;;;;;;;;;8.92;100.00;97575.00;4901870;29;20065;-74
2022/04/21 14:44:30;;;;;;;;;;;;;;;8.66;100.00;97570.72;4895641;29;19951;-74
2022/04/21 14:46:58;;;;;;;;;;;;;;;8.69;100.00;97580.25;4902161;29;19956;-74
2022/04/21 14:49:46;;;;;;;;;;;;;;;8.67;100.00;97585.44;4901899;29;19957;-74
2022/04/21 14:52:13;;;;;;;;;;;;;;;8.76;100.00;97592.19;4901509;29;20377;-74
2022/04/21 14:54:40;;;;;;;;;;;;;;;8.72;100.00;97585.03;4901233;29;19974;-74
2022/04/21 14:57:07;;;;;;;;;;;;;;;8.72;100.00;97571.91;4899374;29;19965;-74
2022/04/21 14:59:35;;;;;;;;;;;;;;;8.67;100.00;97568.72;4900650;29;19950;-74
2022/04/21 15:02:02;;;;;;;;;;;;;;;8.68;100.00;97570.31;4893490;29;19959;-74
2022/04/21 15:04:30;;;;;;;;;;;;;;;8.73;100.00;97562.31;4900607;29;20349;-74
2022/04/21 15:06:57;;;;;;;;;;;;;;;8.69;100.00;97561.56;4901179;29;19968;-73
2022/04/21 15:09:24;;;;;;;;;;;;;;;8.76;100.00;97557.94;4900880;29;19950;-73
2022/04/21 15:11:52;;;;;;;;;;;;;;;8.77;100.00;97557.56;4901407;29;19959;-73
2022/04/21 15:14:19;;;;;;;;;;;;;;;8.78;100.00;97561.13;4899444;29;20283;-74
2022/04/21 15:16:47;;;;;;;;;;;;;;;8.75;100.00;97559.16;4899909;29;20031;-74
2022/04/21 15:19:14;;;;;;;;;;;;;;;8.75;100.00;97548.00;4884167;29;19979;-74
2022/04/21 15:21:42;;;;;;;;;;;;;;;8.73;100.00;97550.41;4900868;29;19950;-74
2022/04/21 15:24:11;;;;;;;;;;;;;;;8.81;100.00;97546.38;4900608;29;19950;-74
2022/04/21 15:26:38;;;;;;;;;;;;;;;8.74;100.00;97547.19;4898730;29;19954;-74
2022/04/21 15:29:05;;;;;;;;;;;;;;;8.74;100.00;97538.84;4899891;29;19957;-73
2022/04/21 15:31:33;;;;;;;;;;;;;;;8.74;100.00;97535.25;4900042;29;19950;-73
2022/04/21 15:34:00;;;;;;;;;;;;;;;8.73;100.00;97534.44;4899360;29;20262;-74
2022/04/21 15:36:27;;;;;;;;;;;;;;;8.66;100.00;97534.47;4900373;29;19956;-74
2022/04/21 15:38:55;;;;;;;;;;;;;;;8.64;100.00;97547.22;4900052;29;19959;-73
2022/04/21 15:41:22;;;;;;;;;;;;;;;8.55;100.00;97536.53;4899412;29;19956;-74
2022/04/21 15:43:50;;;;;;;;;;;;;;;8.56;100.00;97541.69;4899750;29;19961;-74
2022/04/21 15:46:17;;;;;;;;;;;;;;;8.46;100.00;97531.34;4899848;29;20241;-74
2022/04/21 15:48:45;;;;;;;;;;;;;;;8.45;100.00;97529.78;4900620;29;19958;-74
2022/04/21 15:51:13;;;;;;;;;;;;;;;8.39;100.00;97541.72;4900287;29;19960;-74
2022/04/21 15:59:13;;;;;;;;;;;;;;;8.23;100.00;97536.56;4898113;29;20250;-73
2022/04/21 16:01:40;;;;;;;;;;;;;;;8.29;100.00;97539.78;4883150;29;19977;-74
2022/04/21 16:04:07;;;;;;;;;;;;;;;8.28;100.00;97525.06;4898845;29;19954;-74
2022/04/21 16:06:35;;;;;;;;;;;;;;;8.26;100.00;97526.63;4899005;29;19981;-74
2022/04/21 16:09:03;;;;;;;;;;;;;;;8.27;100.00;97523.47;4899460;29;19964;-74
2022/04/21 16:11:30;;;;;;;;;;;;;;;8.31;100.00;97520.69;4899611;29;19950;-74
2022/04/21 16:13:57;;;;;;;;;;;;;;;8.34;100.00;97515.06;4899366;29;21327;-74
2022/04/21 16:16:28;;;;;;;;;;;;;;;8.38;100.00;97512.28;4897114;29;19947;-74
2022/04/21 16:18:56;;;;;;;;;;;;;;;8.38;100.00;97507.53;4900045;29;19982;-74
2022/04/21 16:21:23;;;;;;;;;;;;;;;8.39;100.00;97514.66;4885960;29;19951;-74
2022/04/21 16:23:51;;;;;;;;;;;;;;;8.42;100.00;97510.28;4894739;29;19964;-74
2022/04/21 16:26:18;;;;;;;;;;;;;;;8.41;100.00;97501.13;4899394;29;19958;-74
2022/04/21 16:28:46;;;;;;;;;;;;;;;8.40;100.00;97513.47;4895773;29;20272;-74
2022/04/21 16:31:14;;;;;;;;;;;;;;;8.41;100.00;97519.84;4894228;29;19949;-74
2022/04/21 16:33:42;;;;;;;;;;;;;;;8.40;100.00;97516.28;4899019;29;20241;-73
2022/04/21 16:36:09;;;;;;;;;;;;;;;8.42;100.00;97513.88;4899972;29;19971;-73
2022/04/21 16:38:37;;;;;;;;;;;;;;;8.53;100.00;97505.50;4900526;29;20017;-73
2022/04/21 16:41:04;;;;;;;;;;;;;;;8.43;100.00;97509.09;4899013;29;19957;-75
2022/04/21 16:43:31;;;;;;;;;;;;;;;8.41;100.00;97509.47;4898191;29;19957;-74
2022/04/21 16:45:58;;;;;;;;;;;;;;;8.42;100.00;97508.31;4892769;29;19956;-73
2022/04/21 16:48:26;;;;;;;;;;;;;;;8.52;100.00;97501.09;4896087;29;19958;-74
2022/04/21 16:50:53;;;;;;;;;;;;;;;8.51;100.00;97502.28;4896164;29;19960;-74
2022/04/21 16:53:20;;;;;;;;;;;;;;;8.49;100.00;97502.69;4891588;29;19950;-73
2022/04/21 16:55:48;;;;;;;;;;;;;;;8.54;100.00;97502.28;4877119;29;19966;-73
2022/04/21 16:58:15;;;;;;;;;;;;;;;8.57;100.00;97503.47;4904933;29;20366;-74
2022/04/21 17:03:30;;;;;;;;;;;;;;;8.57;100.00;97487.56;4904089;29;19955;-73
2022/04/21 17:05:58;;;;;;;;;;;;;;;8.54;100.00;97490.34;4901567;29;19954;-74
2022/04/21 17:08:25;;;;;;;;;;;;;;;8.58;100.00;97491.13;4902828;29;19951;-74
2022/04/21 17:10:52;;;;;;;;;;;;;;;8.54;100.00;97491.13;4903919;29;19950;-73
2022/04/21 17:13:20;;;;;;;;;;;;;;;8.53;100.00;97492.31;4900468;29;19957;-73
2022/04/21 17:15:48;;;;;;;;;;;;;;;8.50;100.00;97484.78;4899602;29;19973;-73
2022/04/21 17:18:16;;;;;;;;;;;;;;;8.50;100.00;97486.78;4902636;29;19972;-73
2022/04/21 17:20:43;;;;;;;;;;;;;;;8.49;100.00;97490.75;4904646;29;19952;-73
2022/04/21 17:23:11;;;;;;;;;;;;;;;8.46;100.00;97478.44;4904326;29;20248;-73
2022/04/21 17:25:39;;;;;;;;;;;;;;;8.55;100.00;97484.38;4901597;29;19954;-73
2022/04/21 17:28:07;;;;;;;;;;;;;;;8.49;100.00;97480.41;4903659;29;19956;-73
2022/04/21 17:30:35;;;;;;;;;;;;;;;8.54;100.00;97485.56;4902916;29;19955;-73
2022/04/21 17:33:03;;;;;;;;;;;;;;;8.46;100.00;97486.78;4904485;29;19949;-73
2022/04/21 17:35:30;;;;;;;;;;;;;;;8.40;100.00;97487.63;4897876;29;19977;-73
2022/04/21 17:37:58;;;;;;;;;;;;;;;8.42;100.00;97480.44;4900446;29;19950;-73
2022/04/21 17:40:25;;;;;;;;;;;;;;;8.30;100.00;97478.09;4901566;29;19957;-73
2022/04/21 17:42:53;;;;;;;;;;;;;;;8.29;100.00;97482.06;4902777;29;19954;-74
2022/04/21 17:45:27;;;;;;;;;;;;;;;8.27;100.00;97481.69;4901799;29;20261;-73
2022/04/21 17:48:00;;;;;;;;;;;;;;;8.22;100.00;97482.06;4899903;29;19952;-74
2022/04/21 17:50:28;;;;;;;;;;;;;;;8.11;100.00;97477.72;4903944;29;19951;-73
2022/04/21 17:52:55;;;;;;;;;;;;;;;7.94;100.00;97484.91;4903787;29;19959;-73
2022/04/21 17:55:22;;;;;;;;;;;;;;;8.00;100.00;97483.31;4901954;29;19972;-74
2022/04/21 17:57:50;;;;;;;;;;;;;;;7.91;100.00;97491.28;4901632;29;19962;-75
2022/04/21 18:00:17;;;;;;;;;;;;;;;7.85;100.00;97487.28;4901052;29;19964;-73